West Bend, WI

12:37 PM CST on November 12, 2019 (GMT -0600)
West Bend Municipal

Weather History for KETB - August, 2019

Change the Weather History Date:

Wednesday, August 14, 2019

  Actual Average Record
Temperature  
Mean Temperature 64 °F -  
Max Temperature 69 °F 78 °F 95 °F (1944)
Min Temperature 59 °F 58 °F 42 °F (2013)
Degree Days  
Heating Degree Days 1    
Growing Degree Days 14 (Base 50)    
Moisture  
Dew Point 60 °F    
Average Humidity 86    
Maximum Humidity 100    
Minimum Humidity 68    
Precipitation  
Precipitation 0.06 in - - ()
Sea Level Pressure  
Sea Level Pressure 29.99 in    
Wind  
Wind Speed 4 mph (NNE)    
Max Wind Speed 14 mph    
Max Gust Speed 17 mph    
Visibility 10 miles    
Events Rain    
Averages and records for this station are not official NWS values.
T = Trace of Precipitation, MM = Missing Value Source: NWS Daily Summary

Daily Weather History Graph

Daily Weather History Graph

Search for Another Location

Airport or City:

Astronomy

Aug. 14, 2019 Rise Set
Actual Time 5:56 AM CDT 7:57 PM CDT
Civil Twilight 5:25 AM CDT 8:28 PM CDT
Nautical Twilight 4:47 AM CDT 9:06 PM CDT
Astronomical Twilight 4:05 AM CDT 9:47 PM CDT
Moon 7:53 PM CDT (8/14) 4:50 AM CDT (8/14)
Length of Visible Light 15h 03m
Length of Day
14h 01m
Waxing Gibbous, 99% of the Moon is Illuminated
Aug 14
Waxing Gibbous
Aug 15
Full
Aug 23
Last Quarter
Aug 30
New
Sep 5
First Quarter

Hourly Weather History & Observations

Time (CDT) Temp. Dew Point Humidity Pressure Visibility Wind Dir Wind Speed Gust Speed Precip Events Conditions
12:15 AM 60.8 °F 59.0 °F 94% 29.96 in 10.0 mi Calm Calm - N/A   Clear
12:35 AM 60.8 °F 59.0 °F 94% 29.96 in 10.0 mi Calm Calm - N/A   Scattered Clouds
12:55 AM 59.0 °F 57.2 °F 94% 29.96 in 10.0 mi NNW 3.5 mph - N/A   Scattered Clouds
1:15 AM 60.8 °F 59.0 °F 94% 29.96 in 10.0 mi Calm Calm - N/A   Mostly Cloudy
1:35 AM 59.0 °F 59.0 °F 100% 29.96 in 10.0 mi North 3.5 mph - N/A   Mostly Cloudy
1:55 AM 60.8 °F 59.0 °F 94% 29.96 in 10.0 mi Calm Calm - N/A   Overcast
2:15 AM 60.8 °F 59.0 °F 94% 29.96 in 10.0 mi Calm Calm - N/A   Overcast
2:55 AM 60.8 °F 59.0 °F 94% 29.96 in 10.0 mi Calm Calm - N/A   Overcast
3:15 AM 60.8 °F 59.0 °F 94% 29.95 in 10.0 mi NNE 3.5 mph - N/A   Overcast
3:35 AM 60.8 °F 59.0 °F 94% 29.94 in 10.0 mi ENE 3.5 mph - N/A   Overcast
3:55 AM 60.8 °F 59.0 °F 94% 29.94 in 10.0 mi NE 3.5 mph - N/A   Overcast
4:15 AM 60.8 °F 59.0 °F 94% 29.95 in 10.0 mi NW 3.5 mph - N/A   Overcast
4:35 AM 60.8 °F 59.0 °F 94% 29.95 in 10.0 mi Calm Calm - N/A   Mostly Cloudy
4:55 AM 60.8 °F 59.0 °F 94% 29.95 in 10.0 mi Calm Calm - N/A   Overcast
5:15 AM 60.8 °F 59.0 °F 94% 29.95 in 10.0 mi North 4.6 mph - N/A   Overcast
5:35 AM 60.8 °F 60.8 °F 100% 29.97 in 10.0 mi NNW 4.6 mph - N/A   Overcast
5:55 AM 62.6 °F 60.8 °F 94% 29.97 in 10.0 mi NNE 5.8 mph - N/A Rain Rain
6:15 AM 60.8 °F 60.8 °F 100% 29.97 in 10.0 mi North 3.5 mph - N/A   Overcast
6:35 AM 62.6 °F 60.8 °F 94% 29.97 in 10.0 mi North 4.6 mph - N/A   Overcast
6:55 AM 62.6 °F 60.8 °F 94% 29.97 in 5.0 mi Calm Calm - 0.02 in Rain Rain
7:15 AM 62.6 °F 62.6 °F 100% 29.96 in 5.0 mi North 3.5 mph - 0.02 in Rain Rain
7:35 AM 62.6 °F 62.6 °F 100% 29.96 in 10.0 mi Calm Calm - 0.03 in Rain Light Rain
7:55 AM 62.6 °F 62.6 °F 100% 29.96 in 10.0 mi NNW 3.5 mph - 0.04 in Rain Light Rain
8:15 AM 62.6 °F 62.6 °F 100% 29.97 in 10.0 mi NNW 3.5 mph - N/A   Overcast
8:35 AM 64.4 °F 62.6 °F 94% 29.97 in 10.0 mi North 4.6 mph - N/A   Overcast
8:55 AM 64.4 °F 62.6 °F 94% 29.97 in 10.0 mi Calm Calm - N/A   Overcast
9:15 AM 64.4 °F 64.4 °F 100% 29.97 in 10.0 mi NNE 3.5 mph - N/A   Overcast
9:35 AM 64.4 °F 64.4 °F 100% 29.97 in 10.0 mi ENE 5.8 mph - N/A   Mostly Cloudy
9:55 AM 68.0 °F 64.4 °F 88% 29.97 in 10.0 mi ENE 10.4 mph - N/A   Overcast
10:15 AM 69.8 °F 62.6 °F 78% 29.97 in 10.0 mi ENE 11.5 mph - N/A   Overcast
10:35 AM 69.8 °F 60.8 °F 73% 29.98 in 10.0 mi East 12.7 mph - N/A   Overcast
10:55 AM 69.8 °F 60.8 °F 73% 29.98 in 10.0 mi East 10.4 mph 17.3 mph N/A   Overcast
11:15 AM 69.8 °F 60.8 °F 73% 29.99 in 10.0 mi ENE 12.7 mph - N/A   Overcast
11:35 AM 69.8 °F 59.0 °F 68% 29.99 in 10.0 mi ENE 13.8 mph - N/A   Overcast
11:55 AM 69.8 °F 59.0 °F 68% 29.99 in 10.0 mi NE 10.4 mph - N/A   Overcast
12:15 PM 69.8 °F 59.0 °F 68% 29.99 in 10.0 mi ENE 10.4 mph - N/A   Overcast
12:35 PM 68.0 °F 59.0 °F 73% 29.99 in 10.0 mi ENE 10.4 mph - N/A   Overcast
12:55 PM 68.0 °F 60.8 °F 78% 30.00 in 10.0 mi East 6.9 mph - N/A   Overcast
1:15 PM 66.2 °F 60.8 °F 83% 30.00 in 10.0 mi ENE 5.8 mph - N/A Rain Rain
1:35 PM 64.4 °F 60.8 °F 88% 30.00 in 10.0 mi ENE 5.8 mph - N/A   Light Drizzle
1:55 PM 66.2 °F 60.8 °F 83% 30.00 in 10.0 mi NE 8.1 mph - N/A   Overcast
2:15 PM 66.2 °F 60.8 °F 83% 30.00 in 10.0 mi ENE 8.1 mph - N/A   Overcast
2:35 PM 68.0 °F 60.8 °F 78% 30.00 in 10.0 mi ENE 5.8 mph - N/A   Overcast
2:55 PM 68.0 °F 60.8 °F 78% 30.00 in 10.0 mi NE 8.1 mph - N/A   Overcast
3:15 PM 66.2 °F 60.8 °F 83% 30.00 in 10.0 mi NNE 8.1 mph - N/A   Overcast
3:35 PM 66.2 °F 59.0 °F 78% 30.00 in 10.0 mi NE 9.2 mph - N/A   Overcast
3:55 PM 66.2 °F 59.0 °F 78% 30.00 in 10.0 mi NNE 9.2 mph - N/A   Overcast
4:15 PM 66.2 °F 55.4 °F 68% 30.00 in 10.0 mi NNE 10.4 mph 16.1 mph N/A   Overcast
4:35 PM 66.2 °F 59.0 °F 78% 30.00 in 10.0 mi NNE 8.1 mph - N/A   Overcast
4:55 PM 68.0 °F 59.0 °F 73% 30.00 in 10.0 mi NNE 9.2 mph - N/A   Overcast
5:15 PM 68.0 °F 59.0 °F 73% 30.00 in 10.0 mi NNE 10.4 mph - N/A   Overcast
5:35 PM 66.2 °F 59.0 °F 78% 30.00 in 10.0 mi NE 9.2 mph - N/A   Overcast
5:55 PM 66.2 °F 55.4 °F 68% 30.00 in 10.0 mi NNE 10.4 mph - N/A   Overcast
6:15 PM 66.2 °F 57.2 °F 73% 29.99 in 10.0 mi NNE 10.4 mph - N/A   Overcast
6:35 PM 64.4 °F 55.4 °F 73% 29.99 in 10.0 mi NE 10.4 mph - N/A   Overcast
6:55 PM 64.4 °F 59.0 °F 83% 30.00 in 10.0 mi NNE 8.1 mph - N/A   Scattered Clouds
7:15 PM 64.4 °F 59.0 °F 83% 30.00 in 10.0 mi NNE 9.2 mph - N/A   Clear
7:35 PM 64.4 °F 59.0 °F 83% 30.00 in 10.0 mi NNE 8.1 mph - N/A   Clear
7:55 PM 62.6 °F 59.0 °F 88% 30.01 in 10.0 mi NNE 8.1 mph - N/A   Clear
8:15 PM 62.6 °F 59.0 °F 88% 30.01 in 10.0 mi North 4.6 mph - N/A   Mostly Cloudy
8:35 PM 62.6 °F 59.0 °F 88% 30.02 in 10.0 mi NNE 6.9 mph - N/A   Overcast
8:55 PM 62.6 °F 59.0 °F 88% 30.02 in 10.0 mi North 5.8 mph - N/A   Overcast
9:15 PM 62.6 °F 59.0 °F 88% 30.03 in 10.0 mi North 4.6 mph - N/A   Overcast
9:35 PM 62.6 °F 57.2 °F 82% 30.03 in 10.0 mi North 4.6 mph - N/A   Overcast
9:55 PM 62.6 °F 57.2 °F 82% 30.03 in 10.0 mi NNE 3.5 mph - N/A   Overcast
10:15 PM 62.6 °F 57.2 °F 82% 30.03 in 10.0 mi Calm Calm - N/A   Overcast
10:35 PM 62.6 °F 55.4 °F 77% 30.04 in 10.0 mi Calm Calm - N/A   Overcast
10:55 PM 62.6 °F 57.2 °F 82% 30.04 in 10.0 mi Calm Calm - N/A   Overcast
11:15 PM 62.6 °F 57.2 °F 82% 30.04 in 10.0 mi Calm Calm - N/A   Overcast
11:35 PM 62.6 °F 57.2 °F 82% 30.05 in 10.0 mi Calm Calm - N/A   Overcast
11:55 PM 60.8 °F 57.2 °F 88% 30.04 in 10.0 mi Calm Calm - N/A   Overcast